Time;durP1;ratioP1;P1;durP2;ratioP2;P2;SDS_P1;SDS_P2;PMS_P1;PMS_P2;Temp;Humidity;BMP_temperature;BMP_pressure;BME280_temperature;BME280_humidity;BME280_pressure;Samples;Min_cycle;Max_cycle;Signal;HPM_P1;HPM_P2
2021/05/29 00:00:51;;;;;;;11.07;9.60;;;18.70;88.10;;;;;;5094136;28;20055;-74
2021/05/29 00:03:17;;;;;;;12.43;9.98;;;18.70;88.20;;;;;;5094463;28;20032;-74
2021/05/29 00:05:44;;;;;;;12.57;10.18;;;18.70;88.00;;;;;;5094175;28;20028;-73
2021/05/29 00:08:10;;;;;;;11.85;10.60;;;18.70;87.90;;;;;;5094387;28;20130;-74
2021/05/29 00:10:39;;;;;;;12.43;10.32;;;18.60;87.80;;;;;;5094148;28;20024;-73
2021/05/29 00:13:06;;;;;;;12.18;10.90;;;18.60;87.80;;;;;;5094195;28;20063;-73
2021/05/29 00:15:32;;;;;;;13.65;11.38;;;18.50;87.70;;;;;;5094348;28;20070;-73
2021/05/29 00:17:57;;;;;;;13.93;11.15;;;18.40;87.70;;;;;;5094365;28;20417;-73
2021/05/29 00:20:23;;;;;;;15.52;10.68;;;18.30;88.00;;;;;;5094549;28;20393;-73
2021/05/29 00:22:49;;;;;;;14.85;11.32;;;18.30;88.30;;;;;;5093842;28;20035;-73
2021/05/29 00:25:16;;;;;;;14.38;11.65;;;18.20;88.60;;;;;;5094213;28;20027;-73
2021/05/29 00:27:42;;;;;;;13.35;11.43;;;18.20;88.90;;;;;;5093994;28;20355;-73
2021/05/29 00:30:10;;;;;;;13.40;11.55;;;18.10;89.00;;;;;;5094252;28;20036;-73
2021/05/29 00:32:40;;;;;;;15.45;12.77;;;18.10;89.30;;;;;;5093858;28;20452;-73
2021/05/29 00:35:08;;;;;;;13.73;12.32;;;18.00;89.20;;;;;;5093972;28;20446;-73
2021/05/29 00:37:34;;;;;;;14.52;12.90;;;17.90;89.60;;;;;;5093678;28;20052;-73
2021/05/29 00:40:00;;;;;;;16.15;12.73;;;17.90;90.00;;;;;;5093719;28;20027;-73
2021/05/29 00:42:26;;;;;;;15.88;13.73;;;17.80;90.10;;;;;;5093660;28;20032;-73
2021/05/29 00:44:55;;;;;;;15.30;13.50;;;17.90;90.60;;;;;;5093327;28;20044;-73
2021/05/29 00:47:23;;;;;;;13.73;12.32;;;17.80;90.30;;;;;;5093775;28;20035;-73
2021/05/29 00:49:50;;;;;;;15.90;13.73;;;17.80;90.40;;;;;;5093467;28;20436;-73
2021/05/29 00:52:17;;;;;;;16.02;13.35;;;17.80;90.40;;;;;;5093585;28;20026;-74
2021/05/29 00:54:44;;;;;;;17.75;14.15;;;17.80;90.50;;;;;;5093481;28;20057;-73
2021/05/29 00:57:11;;;;;;;17.20;14.55;;;17.80;90.50;;;;;;5093606;28;20024;-73
2021/05/29 00:59:37;;;;;;;17.13;15.20;;;17.80;90.40;;;;;;5093365;28;20040;-73
2021/05/29 01:02:04;;;;;;;17.98;14.85;;;17.70;90.40;;;;;;5093724;28;20029;-73
2021/05/29 01:04:30;;;;;;;44.35;17.60;;;17.70;90.50;;;;;;5093950;28;20031;-73
2021/05/29 01:06:56;;;;;;;30.00;17.00;;;17.70;90.60;;;;;;5093506;28;20393;-73
2021/05/29 01:09:24;;;;;;;36.88;16.30;;;17.70;90.70;;;;;;5093473;28;20028;-74
2021/05/29 01:11:51;;;;;;;49.55;17.95;;;17.70;90.80;;;;;;5093404;28;20106;-74
2021/05/29 01:14:16;;;;;;;105.90;20.75;;;17.70;90.80;;;;;;5093336;28;20120;-74
2021/05/29 01:16:57;;;;;;;104.65;19.83;;;17.70;90.70;;;;;;5093428;28;20059;-74
2021/05/29 01:19:22;;;;;;;25.65;16.05;;;17.70;90.70;;;;;;5097698;28;20382;-74
2021/05/29 01:21:48;;;;;;;50.80;16.35;;;17.80;90.90;;;;;;5097547;28;20031;-74
2021/05/29 01:24:14;;;;;;;50.88;17.90;;;17.80;90.90;;;;;;5097911;28;20031;-74
2021/05/29 01:26:40;;;;;;;67.03;18.45;;;17.80;91.00;;;;;;5097387;28;20051;-73
2021/05/29 01:29:06;;;;;;;30.35;18.52;;;17.90;91.00;;;;;;5097327;28;20457;-73
2021/05/29 01:31:34;;;;;;;42.33;17.40;;;17.90;90.90;;;;;;5097038;28;20397;-74
2021/05/29 01:34:00;;;;;;;23.83;17.15;;;17.90;90.90;;;;;;5097112;28;20050;-74
2021/05/29 01:36:27;;;;;;;43.47;16.40;;;17.90;91.00;;;;;;5097262;28;20035;-74
2021/05/29 01:38:53;;;;;;;30.17;17.88;;;17.90;91.00;;;;;;5096868;28;20031;-74
2021/05/29 01:41:22;;;;;;;57.97;18.77;;;18.00;90.90;;;;;;5097196;28;20127;-73
2021/05/29 01:43:50;;;;;;;40.70;16.85;;;18.00;90.90;;;;;;5096708;28;20481;-73
2021/05/29 01:46:18;;;;;;;49.03;19.30;;;18.00;90.90;;;;;;5096645;28;20546;-73
2021/05/29 01:48:46;;;;;;;31.05;17.40;;;18.10;90.80;;;;;;5097111;28;20386;-73
2021/05/29 01:51:14;;;;;;;24.65;17.25;;;18.10;90.80;;;;;;5096902;28;20031;-73
2021/05/29 01:53:40;;;;;;;105.57;27.08;;;18.00;90.80;;;;;;5096705;28;20101;-73
2021/05/29 01:56:07;;;;;;;30.98;20.63;;;18.10;90.90;;;;;;5096845;28;20035;-73
2021/05/29 01:58:34;;;;;;;44.00;22.80;;;18.10;90.90;;;;;;5096668;28;20035;-73
2021/05/29 02:01:00;;;;;;;55.63;26.13;;;18.20;91.00;;;;;;5096934;28;20028;-73
2021/05/29 02:03:25;;;;;;;35.80;21.17;;;18.20;91.00;;;;;;5096742;28;20355;-73
2021/05/29 02:05:52;;;;;;;28.55;19.42;;;18.30;90.80;;;;;;5096621;28;20067;-73
2021/05/29 02:08:18;;;;;;;30.95;19.20;;;18.30;90.70;;;;;;5096651;28;20102;-73
2021/05/29 02:10:46;;;;;;;36.15;20.60;;;18.40;90.70;;;;;;5096782;28;20374;-73
2021/05/29 02:13:21;;;;;;;26.48;19.00;;;18.50;90.60;;;;;;5096563;28;20032;-73
2021/05/29 02:15:47;;;;;;;29.05;17.65;;;18.50;90.50;;;;;;5096183;28;20161;-73
2021/05/29 02:18:12;;;;;;;21.52;17.17;;;18.60;90.30;;;;;;5096181;28;20069;-73
2021/05/29 02:20:45;;;;;;;27.52;19.27;;;18.60;90.20;;;;;;5095971;28;20028;-73
2021/05/29 02:23:14;;;;;;;20.95;17.65;;;18.60;90.00;;;;;;5096228;28;20488;-73
2021/05/29 02:25:40;;;;;;;20.13;16.75;;;18.70;89.60;;;;;;5096124;28;20035;-73
2021/05/29 02:28:06;;;;;;;21.20;16.08;;;18.70;89.40;;;;;;5094929;28;20030;-73
2021/05/29 02:30:33;;;;;;;19.20;16.05;;;18.60;89.20;;;;;;5096247;28;20056;-73
2021/05/29 02:32:59;;;;;;;18.80;16.13;;;18.60;89.20;;;;;;5096189;28;20032;-73
2021/05/29 02:35:25;;;;;;;21.70;16.02;;;18.60;89.10;;;;;;5096330;28;20031;-73
2021/05/29 02:37:51;;;;;;;19.50;16.42;;;18.60;89.10;;;;;;5096070;28;20059;-73
2021/05/29 02:40:17;;;;;;;19.63;16.10;;;18.60;89.00;;;;;;5095595;28;20076;-73
2021/05/29 02:42:43;;;;;;;23.90;16.75;;;18.60;88.80;;;;;;5095924;28;20042;-73
2021/05/29 02:45:10;;;;;;;21.77;17.25;;;18.50;88.90;;;;;;5095904;28;20054;-75
2021/05/29 02:47:35;;;;;;;20.67;16.70;;;18.50;89.10;;;;;;5095739;28;20032;-73
2021/05/29 02:50:02;;;;;;;23.30;17.42;;;18.50;89.30;;;;;;5096289;28;20050;-73
2021/05/29 02:52:28;;;;;;;20.27;16.67;;;18.50;89.50;;;;;;5095691;28;20024;-73
2021/05/29 02:54:53;;;;;;;22.45;17.55;;;18.60;89.50;;;;;;5095672;28;20031;-73
2021/05/29 02:57:19;;;;;;;24.13;17.55;;;18.60;89.50;;;;;;5095823;28;20020;-73
2021/05/29 02:59:45;;;;;;;24.45;17.98;;;18.60;89.20;;;;;;5094236;28;20028;-74
2021/05/29 03:02:11;;;;;;;27.20;20.45;;;18.70;89.30;;;;;;5095924;28;20024;-73
2021/05/29 03:04:37;;;;;;;24.13;18.55;;;18.70;89.20;;;;;;5095491;28;20024;-74
2021/05/29 03:07:04;;;;;;;27.98;18.80;;;18.80;89.20;;;;;;5095251;28;20099;-74
2021/05/29 03:09:30;;;;;;;26.70;18.33;;;18.90;89.00;;;;;;5095429;28;20025;-73
2021/05/29 03:11:57;;;;;;;26.48;19.60;;;19.00;88.80;;;;;;5095242;28;20032;-74
2021/05/29 03:14:22;;;;;;;29.58;19.40;;;19.00;88.40;;;;;;5111210;28;20119;-73
2021/05/29 03:16:49;;;;;;;27.80;19.67;;;19.00;87.80;;;;;;5095128;28;20111;-74
2021/05/29 03:19:15;;;;;;;29.13;20.20;;;19.10;87.70;;;;;;5095281;28;20028;-74
2021/05/29 03:21:42;;;;;;;25.48;18.83;;;19.10;87.20;;;;;;5095022;28;20477;-74
2021/05/29 03:24:08;;;;;;;27.50;18.92;;;19.20;87.00;;;;;;5095083;28;20028;-74
2021/05/29 03:26:34;;;;;;;27.67;20.80;;;19.20;86.80;;;;;;5094888;28;20051;-74
2021/05/29 03:29:00;;;;;;;27.23;20.23;;;19.20;86.70;;;;;;5095001;28;20031;-74
2021/05/29 03:31:27;;;;;;;26.27;20.17;;;19.20;86.60;;;;;;5093712;28;20115;-74
2021/05/29 03:33:52;;;;;;;24.08;19.25;;;19.30;86.60;;;;;;5093162;28;20066;-74
2021/05/29 03:36:18;;;;;;;25.10;18.92;;;19.30;86.40;;;;;;5094627;28;20056;-74
2021/05/29 03:38:44;;;;;;;25.75;19.98;;;19.30;86.20;;;;;;5089461;28;20108;-74
2021/05/29 03:41:10;;;;;;;27.40;20.13;;;19.30;85.90;;;;;;5074171;28;20044;-74
2021/05/29 03:43:35;;;;;;;29.05;21.38;;;19.40;85.80;;;;;;5074466;28;20466;-73
2021/05/29 03:46:01;;;;;;;27.90;20.27;;;19.40;85.70;;;;;;5094864;28;20024;-73
2021/05/29 03:48:27;;;;;;;25.05;19.80;;;19.40;85.30;;;;;;5095322;28;20067;-74
2021/05/29 03:50:53;;;;;;;26.00;19.70;;;19.50;84.90;;;;;;5079610;28;20025;-73
2021/05/29 03:53:19;;;;;;;24.70;18.98;;;19.60;84.60;;;;;;5094255;28;20039;-73
2021/05/29 03:55:44;;;;;;;23.75;19.13;;;19.60;84.30;;;;;;5094339;28;20035;-74
2021/05/29 03:58:11;;;;;;;25.08;19.00;;;19.60;84.00;;;;;;5094690;28;20035;-73
2021/05/29 04:00:37;;;;;;;22.30;17.30;;;19.70;83.90;;;;;;5094694;28;20110;-73
2021/05/29 04:03:02;;;;;;;21.33;17.63;;;19.70;83.80;;;;;;5078616;28;20089;-73
2021/05/29 04:05:31;;;;;;;22.10;17.10;;;19.70;83.60;;;;;;5094318;28;20028;-74
2021/05/29 04:07:57;;;;;;;20.00;16.02;;;19.70;83.40;;;;;;5094251;28;20027;-73
2021/05/29 04:10:26;;;;;;;17.92;15.95;;;19.80;83.40;;;;;;5094611;28;20520;-74
2021/05/29 04:12:53;;;;;;;19.23;15.38;;;19.80;83.40;;;;;;5094062;28;20036;-74
2021/05/29 04:15:19;;;;;;;18.23;15.27;;;19.90;84.00;;;;;;5094249;28;20119;-74
2021/05/29 04:17:45;;;;;;;18.33;14.55;;;19.90;83.30;;;;;;5094182;28;20032;-74
2021/05/29 04:20:14;;;;;;;16.42;14.57;;;19.90;83.20;;;;;;5093699;28;20023;-74
2021/05/29 04:22:40;;;;;;;18.10;13.93;;;20.10;83.30;;;;;;5093993;28;20036;-74
2021/05/29 04:25:08;;;;;;;16.23;14.15;;;20.10;83.00;;;;;;5093852;28;20093;-73
2021/05/29 04:27:35;;;;;;;16.65;13.02;;;20.20;82.70;;;;;;5086776;28;20328;-74
2021/05/29 04:30:01;;;;;;;14.07;12.57;;;20.30;82.30;;;;;;5073480;28;20081;-74
2021/05/29 04:32:27;;;;;;;14.20;12.40;;;20.40;81.90;;;;;;5073549;28;20109;-74
2021/05/29 04:34:53;;;;;;;13.45;12.05;;;20.50;81.90;;;;;;5073527;28;20470;-74
2021/05/29 04:37:19;;;;;;;14.13;12.50;;;20.70;81.80;;;;;;5073643;28;20458;-74
2021/05/29 04:39:45;;;;;;;11.77;10.60;;;20.90;81.40;;;;;;5073669;28;20026;-74
2021/05/29 04:42:11;;;;;;;13.18;11.70;;;21.00;80.90;;;;;;5074212;28;20048;-74
2021/05/29 04:44:37;;;;;;;13.70;10.60;;;21.20;80.20;;;;;;5073386;28;20024;-75
2021/05/29 04:47:03;;;;;;;11.68;10.45;;;21.30;79.60;;;;;;5073408;28;20039;-75
2021/05/29 04:49:29;;;;;;;12.18;10.10;;;21.50;79.00;;;;;;5073608;28;20021;-75
2021/05/29 04:51:57;;;;;;;12.05;10.68;;;21.60;78.40;;;;;;5072729;28;20131;-75
2021/05/29 04:54:23;;;;;;;12.30;10.30;;;21.80;77.80;;;;;;5073317;28;20032;-76
2021/05/29 04:56:48;;;;;;;9.07;8.15;;;22.00;77.10;;;;;;5073489;28;20085;-78
2021/05/29 04:59:14;;;;;;;9.40;8.07;;;22.10;76.20;;;;;;5073684;28;20524;-72
2021/05/29 05:01:40;;;;;;;9.32;7.55;;;22.20;75.40;;;;;;5073375;28;20090;-72
2021/05/29 05:04:06;;;;;;;8.25;7.40;;;22.30;74.70;;;;;;5073512;28;20032;-76
2021/05/29 05:06:32;;;;;;;8.02;7.22;;;22.30;74.50;;;;;;5073481;28;20023;-75
2021/05/29 05:08:57;;;;;;;7.40;6.70;;;22.20;74.00;;;;;;5073248;28;20028;-75
2021/05/29 05:11:24;;;;;;;8.95;7.05;;;22.20;73.80;;;;;;5072968;28;20535;-75
2021/05/29 05:13:50;;;;;;;8.13;7.30;;;22.10;74.00;;;;;;5073140;28;20090;-76
2021/05/29 05:16:16;;;;;;;8.48;7.47;;;22.00;74.10;;;;;;5073577;28;20032;-76
2021/05/29 05:18:43;;;;;;;8.05;7.05;;;22.00;74.30;;;;;;5074983;28;20442;-76
2021/05/29 05:21:09;;;;;;;7.97;7.00;;;22.00;74.30;;;;;;5093329;28;20054;-74
2021/05/29 05:23:35;;;;;;;11.05;7.72;;;22.00;74.20;;;;;;5093115;28;20392;-73
2021/05/29 05:26:01;;;;;;;8.25;7.18;;;21.90;74.30;;;;;;5092626;28;20020;-73
2021/05/29 05:28:28;;;;;;;8.30;7.50;;;21.90;74.20;;;;;;5093638;28;20103;-73
2021/05/29 05:30:55;;;;;;;9.00;7.20;;;21.90;74.40;;;;;;5093281;28;20020;-73
2021/05/29 05:33:22;;;;;;;8.93;7.35;;;21.80;74.10;;;;;;5092908;28;20202;-74
2021/05/29 05:35:48;;;;;;;8.98;6.95;;;21.80;74.30;;;;;;5093110;28;20032;-74
2021/05/29 05:38:14;;;;;;;7.32;6.47;;;21.80;74.40;;;;;;5092993;28;20416;-74
2021/05/29 05:40:40;;;;;;;9.50;6.88;;;21.80;74.30;;;;;;5093141;28;20048;-74
2021/05/29 05:43:06;;;;;;;8.90;7.15;;;21.80;74.30;;;;;;5093102;28;20456;-74
2021/05/29 05:45:32;;;;;;;7.80;6.97;;;21.90;74.30;;;;;;5093148;28;20048;-74
2021/05/29 05:47:58;;;;;;;8.18;7.30;;;21.90;74.10;;;;;;5108696;28;20056;-74
2021/05/29 05:50:23;;;;;;;8.23;6.82;;;21.80;74.10;;;;;;5108818;28;20035;-75
2021/05/29 05:52:49;;;;;;;9.35;6.53;;;21.90;74.00;;;;;;5091945;28;20039;-74
2021/05/29 05:55:15;;;;;;;8.45;6.85;;;21.90;74.00;;;;;;5092743;28;20093;-74
2021/05/29 05:57:42;;;;;;;6.90;6.25;;;21.90;73.90;;;;;;5065080;28;20025;-74
2021/05/29 06:00:11;;;;;;;7.60;6.45;;;21.90;74.30;;;;;;5057161;28;20131;-74
2021/05/29 06:02:36;;;;;;;8.80;6.40;;;22.00;73.40;;;;;;5051902;28;20040;-74
2021/05/29 06:05:03;;;;;;;7.20;6.50;;;22.00;73.30;;;;;;5056238;28;20021;-74
2021/05/29 06:07:28;;;;;;;8.43;6.00;;;22.00;73.40;;;;;;5055000;28;20458;-74
2021/05/29 06:09:54;;;;;;;7.40;6.65;;;22.00;73.00;;;;;;5055937;28;20021;-74
2021/05/29 06:12:20;;;;;;;7.45;6.70;;;22.00;73.00;;;;;;5055905;28;20029;-74
2021/05/29 06:20:15;;;;;;;7.22;6.18;;;21.90;73.10;;;;;;5076151;28;20044;-75
2021/05/29 06:22:41;;;;;;;7.80;6.70;;;21.90;73.00;;;;;;5076098;28;20032;-76
2021/05/29 06:25:09;;;;;;;12.85;7.72;;;21.90;73.10;;;;;;5075723;28;20039;-74
2021/05/29 06:27:35;;;;;;;7.30;6.20;;;21.80;73.10;;;;;;5076321;28;20070;-74
2021/05/29 06:30:02;;;;;;;7.97;6.70;;;21.80;73.20;;;;;;5075676;28;20050;-74
2021/05/29 06:32:27;;;;;;;8.13;6.45;;;21.90;73.10;;;;;;5075826;28;20078;-74
2021/05/29 06:34:53;;;;;;;7.18;5.93;;;21.90;73.10;;;;;;5076081;28;20020;-75
2021/05/29 06:37:19;;;;;;;7.47;6.55;;;22.00;73.10;;;;;;5075765;28;20028;-74
2021/05/29 06:39:45;;;;;;;6.75;6.15;;;22.10;73.40;;;;;;5075775;28;20416;-74
2021/05/29 06:42:15;;;;;;;7.45;6.05;;;22.10;73.00;;;;;;5075987;28;20537;-74
2021/05/29 06:44:41;;;;;;;6.70;6.10;;;22.20;72.80;;;;;;5075630;28;20024;-74
2021/05/29 06:47:07;;;;;;;6.40;5.75;;;22.30;72.90;;;;;;5075502;28;20077;-74
2021/05/29 06:49:36;;;;;;;8.43;6.25;;;22.40;72.50;;;;;;5075425;28;20029;-74
2021/05/29 06:52:07;;;;;;;8.15;6.82;;;22.60;72.50;;;;;;5074159;28;20024;-74
2021/05/29 06:59:46;;;;;;;;;;;22.90;72.00;;;;;;5076079;28;20116;-73
2021/05/29 07:02:12;;;;;;;6.45;5.80;;;23.10;72.30;;;;;;5075655;28;20357;-74
2021/05/29 07:04:37;;;;;;;9.02;6.40;;;23.10;71.90;;;;;;5075674;28;20108;-73
2021/05/29 07:07:03;;;;;;;6.95;6.25;;;23.20;71.90;;;;;;5075357;28;20048;-74
2021/05/29 07:09:29;;;;;;;6.95;6.35;;;23.10;71.20;;;;;;5075249;28;20101;-75
2021/05/29 07:11:55;;;;;;;7.70;6.80;;;23.10;71.20;;;;;;5073702;28;20032;-75
2021/05/29 07:14:21;;;;;;;6.82;6.13;;;23.10;71.00;;;;;;5074459;28;20033;-74
2021/05/29 07:16:50;;;;;;;9.38;6.97;;;23.10;70.90;;;;;;5075410;28;20081;-75
2021/05/29 07:19:15;;;;;;;7.75;6.53;;;23.10;71.20;;;;;;5075128;28;20028;-75
2021/05/29 07:21:41;;;;;;;7.88;6.25;;;23.10;71.00;;;;;;5073802;28;20382;-75
2021/05/29 07:24:07;;;;;;;7.68;6.82;;;23.20;70.80;;;;;;5075115;28;20032;-75
2021/05/29 07:26:33;;;;;;;7.90;6.25;;;23.10;70.60;;;;;;5074985;28;20033;-75
2021/05/29 07:28:59;;;;;;;7.00;6.15;;;23.10;70.70;;;;;;5067853;28;20387;-75
2021/05/29 07:31:25;;;;;;;6.65;6.15;;;23.10;70.60;;;;;;5059706;28;20095;-74
2021/05/29 07:33:54;;;;;;;7.35;6.30;;;23.10;70.20;;;;;;5063942;28;20534;-74
2021/05/29 07:36:20;;;;;;;7.00;6.35;;;23.10;70.00;;;;;;5062152;28;20017;-75
2021/05/29 07:38:45;;;;;;;6.53;5.93;;;23.10;69.90;;;;;;5063464;28;20032;-74
2021/05/29 07:41:11;;;;;;;8.93;6.45;;;23.10;69.70;;;;;;5063721;28;20055;-74
2021/05/29 07:43:37;;;;;;;8.88;7.00;;;23.10;69.70;;;;;;5061826;28;20028;-74
2021/05/29 07:46:04;;;;;;;8.05;7.18;;;23.20;69.90;;;;;;5062438;28;20039;-74
2021/05/29 07:48:30;;;;;;;8.13;6.57;;;23.20;69.80;;;;;;5062658;28;20107;-74
2021/05/29 07:51:03;;;;;;;8.63;6.72;;;23.30;69.60;;;;;;5063847;28;20451;-74
2021/05/29 07:53:39;;;;;;;6.80;6.20;;;23.30;69.60;;;;;;5062963;28;20045;-75
2021/05/29 07:56:10;;;;;;;6.65;5.97;;;23.40;69.10;;;;;;5062257;28;20024;-75
2021/05/29 07:58:40;;;;;;;7.28;6.57;;;23.50;68.90;;;;;;5060364;28;20080;-75
2021/05/29 08:01:06;;;;;;;7.47;6.68;;;23.60;69.20;;;;;;5063205;28;20027;-75
2021/05/29 08:03:32;;;;;;;10.25;7.25;;;23.70;68.80;;;;;;5063403;28;20033;-74
2021/05/29 08:05:58;;;;;;;8.70;7.22;;;23.90;68.80;;;;;;5061595;28;20025;-74
2021/05/29 08:08:24;;;;;;;8.05;7.25;;;24.10;68.40;;;;;;5063016;28;20439;-74
2021/05/29 08:10:53;;;;;;;7.75;6.95;;;24.20;67.70;;;;;;5063299;28;20017;-74
2021/05/29 08:13:20;;;;;;;7.15;6.45;;;24.50;67.50;;;;;;5061610;28;20025;-75
2021/05/29 08:15:47;;;;;;;7.65;6.80;;;24.70;66.90;;;;;;5062423;28;20032;-74
2021/05/29 08:18:16;;;;;;;7.35;6.65;;;25.10;66.40;;;;;;5063084;28;20110;-74
2021/05/29 08:20:43;;;;;;;9.38;6.68;;;25.50;66.10;;;;;;5061304;28;20475;-74
2021/05/29 08:23:09;;;;;;;7.32;6.50;;;26.00;64.90;;;;;;5062317;28;20432;-74
2021/05/29 08:25:35;;;;;;;7.82;7.10;;;26.40;63.80;;;;;;5062342;28;20029;-75
2021/05/29 08:28:01;;;;;;;7.78;7.05;;;26.70;63.00;;;;;;5060930;28;20356;-75
2021/05/29 08:30:27;;;;;;;6.78;6.07;;;26.90;62.20;;;;;;5062499;28;20025;-75
2021/05/29 08:32:53;;;;;;;8.95;6.60;;;26.90;61.50;;;;;;5062572;28;20036;-75
2021/05/29 08:35:19;;;;;;;6.93;5.65;;;27.00;61.20;;;;;;5061085;28;20020;-75
2021/05/29 08:37:46;;;;;;;7.47;6.20;;;27.00;60.20;;;;;;5063981;28;20039;-75
2021/05/29 08:40:14;;;;;;;7.47;6.30;;;27.10;60.20;;;;;;5061652;28;20055;-74
2021/05/29 08:42:42;;;;;;;7.10;6.40;;;27.10;59.40;;;;;;5062852;28;20040;-75
2021/05/29 08:45:09;;;;;;;7.05;6.20;;;27.00;59.30;;;;;;5061821;28;20083;-74
2021/05/29 08:47:35;;;;;;;9.55;7.30;;;26.90;59.30;;;;;;5059971;28;20060;-76
2021/05/29 08:50:00;;;;;;;9.90;6.53;;;26.80;59.40;;;;;;5063065;28;20043;-76
2021/05/29 08:52:26;;;;;;;7.55;6.20;;;26.90;59.30;;;;;;5061181;28;20033;-76
2021/05/29 08:54:55;;;;;;;8.20;7.40;;;26.90;59.40;;;;;;5061589;28;20031;-75
2021/05/29 08:57:22;;;;;;;8.27;7.38;;;27.10;59.20;;;;;;5062740;28;20080;-74
2021/05/29 08:59:47;;;;;;;10.77;7.85;;;27.10;58.90;;;;;;5061684;28;20029;-75
2021/05/29 09:02:13;;;;;;;7.85;6.93;;;27.10;58.70;;;;;;5059905;28;20456;-75
2021/05/29 09:05:09;;;;;;;9.95;7.45;;;26.70;59.40;;;;;;5062881;28;20067;-75
2021/05/29 09:07:35;;;;;;;8.68;7.75;;;26.50;59.30;;;;;;5062531;28;20060;-74
2021/05/29 09:10:13;;;;;;;9.80;8.68;;;26.30;59.80;;;;;;5060862;28;20048;-75
2021/05/29 09:13:09;;;;;;;11.18;9.15;;;26.00;60.00;;;;;;5059411;28;20372;-74
2021/05/29 09:15:47;;;;;;;11.63;10.52;;;25.90;60.60;;;;;;5062362;28;20376;-74
2021/05/29 09:18:48;;;;;;;13.20;10.85;;;25.90;60.60;;;;;;5062180;28;20379;-74
2021/05/29 09:21:23;;;;;;;11.98;10.77;;;26.40;60.80;;;;;;5055338;28;20048;-74
2021/05/29 09:23:58;;;;;;;11.50;10.40;;;27.50;59.80;;;;;;5059839;28;20028;-74
2021/05/29 09:26:48;;;;;;;13.30;11.00;;;28.30;57.90;;;;;;5064210;28;20036;-74
2021/05/29 09:29:20;;;;;;;12.52;10.70;;;29.10;56.70;;;;;;5046327;28;20039;-74
2021/05/29 09:32:06;;;;;;;10.48;9.48;;;30.10;55.40;;;;;;5053187;28;20108;-75
2021/05/29 09:34:53;;;;;;;11.23;10.23;;;30.80;53.30;;;;;;5052868;28;20047;-76
2021/05/29 09:37:23;;;;;;;12.82;11.55;;;30.70;52.40;;;;;;5053388;28;20104;-74
2021/05/29 09:39:51;;;;;;;15.65;11.73;;;30.30;52.60;;;;;;5055676;28;20036;-77
2021/05/29 09:42:19;;;;;;;11.60;10.50;;;30.20;52.90;;;;;;5057173;28;20040;-75
2021/05/29 09:44:46;;;;;;;12.57;11.27;;;30.40;52.90;;;;;;5056451;28;20036;-74
2021/05/29 09:47:16;;;;;;;10.43;9.52;;;30.70;52.30;;;;;;5055190;28;20116;-76
2021/05/29 09:49:51;;;;;;;10.95;9.95;;;31.50;51.80;;;;;;5056636;28;20113;-76
2021/05/29 09:52:39;;;;;;;11.43;10.23;;;32.70;50.50;;;;;;5055687;28;20538;-76
2021/05/29 09:55:08;;;;;;;11.35;10.15;;;33.90;49.40;;;;;;5056100;28;20090;-75
2021/05/29 09:57:59;;;;;;;11.88;10.77;;;34.90;48.40;;;;;;5056422;28;20029;-75
2021/05/29 10:00:48;;;;;;;11.57;10.43;;;35.80;46.60;;;;;;5056148;28;20028;-74
2021/05/29 10:03:15;;;;;;;12.07;10.85;;;36.60;45.30;;;;;;5055956;28;20590;-75
2021/05/29 10:05:43;;;;;;;12.52;11.05;;;37.20;44.30;;;;;;5054992;28;20055;-75
2021/05/29 10:08:13;;;;;;;12.45;11.23;;;37.70;43.50;;;;;;5056198;28;20536;-75
2021/05/29 10:10:39;;;;;;;12.13;10.93;;;38.00;42.50;;;;;;5063491;28;20029;-75
2021/05/29 10:13:05;;;;;;;14.20;12.73;;;38.20;42.00;;;;;;5068436;28;20039;-76
2021/05/29 10:15:31;;;;;;;13.80;12.40;;;38.50;41.60;;;;;;5076607;28;20024;-77
2021/05/29 10:17:58;;;;;;;12.00;10.50;;;38.90;41.40;;;;;;5074020;28;20194;-77
2021/05/29 10:20:24;;;;;;;12.15;10.88;;;39.30;40.70;;;;;;5066255;28;20036;-76
2021/05/29 10:22:50;;;;;;;11.35;10.30;;;39.70;40.10;;;;;;5063858;28;20028;-75
2021/05/29 10:25:18;;;;;;;10.57;9.40;;;40.10;39.70;;;;;;5064830;28;20028;-75
2021/05/29 10:27:54;;;;;;;10.13;9.15;;;40.40;39.00;;;;;;5065411;28;20048;-74
2021/05/29 10:30:25;;;;;;;11.18;8.20;;;40.80;38.30;;;;;;5064604;28;20059;-75
2021/05/29 10:33:15;;;;;;;7.95;7.15;;;41.10;37.70;;;;;;5063719;28;20105;-75
2021/05/29 10:35:43;;;;;;;7.45;6.60;;;41.00;37.20;;;;;;5065152;28;20098;-75
2021/05/29 10:38:09;;;;;;;7.40;6.68;;;41.20;37.20;;;;;;5063151;28;20025;-75
2021/05/29 10:40:43;;;;;;;7.97;7.25;;;41.40;36.80;;;;;;5063080;28;20523;-75
2021/05/29 10:43:15;;;;;;;7.53;6.65;;;41.70;36.50;;;;;;5063186;28;20064;-75
2021/05/29 10:45:50;;;;;;;12.88;6.88;;;42.00;36.30;;;;;;5063466;28;20464;-75
2021/05/29 10:48:20;;;;;;;8.00;6.85;;;42.20;35.70;;;;;;5063932;28;20028;-76
2021/05/29 10:53:53;;;;;;;10.15;7.18;;;42.50;35.40;;;;;;5062297;28;20183;-74
2021/05/29 10:56:19;;;;;;;7.53;6.82;;;42.40;35.20;;;;;;5064165;28;20108;-74
2021/05/29 10:58:59;;;;;;;8.40;7.70;;;42.40;35.40;;;;;;5062506;28;20029;-74
2021/05/29 11:01:48;;;;;;;9.18;6.72;;;42.60;35.10;;;;;;5062848;28;20021;-75
2021/05/29 11:06:45;;;;;;;8.98;7.97;;;43.20;34.60;;;;;;5062270;28;20089;-74
2021/05/29 11:09:12;;;;;;;10.65;9.68;;;42.90;34.10;;;;;;5064339;28;20025;-75
2021/05/29 11:11:39;;;;;;;9.98;9.07;;;41.80;34.70;;;;;;5063005;28;20028;-75
2021/05/29 11:14:12;;;;;;;11.10;9.25;;;40.50;35.90;;;;;;5064039;28;20470;-73
2021/05/29 11:16:47;;;;;;;11.18;9.35;;;39.30;37.10;;;;;;5064908;28;20021;-77
2021/05/29 11:19:15;;;;;;;10.95;8.68;;;38.00;38.10;;;;;;5064573;28;20063;-77
2021/05/29 11:22:16;;;;;;;11.77;8.35;;;36.60;39.20;;;;;;5063045;28;20043;-78
2021/05/29 11:24:54;;;;;;;9.70;7.78;;;35.10;40.60;;;;;;5062567;28;20027;-79
2021/05/29 11:27:24;;;;;;;7.85;6.72;;;33.90;42.30;;;;;;5062415;28;20090;-82
2021/05/29 11:29:55;;;;;;;11.02;7.80;;;32.90;43.40;;;;;;5063320;28;20020;-80
2021/05/29 11:32:43;;;;;;;8.70;7.80;;;32.10;44.70;;;;;;5062814;28;20021;-80
2021/05/29 11:35:29;;;;;;;7.90;6.88;;;31.40;45.70;;;;;;5063869;28;20021;-80
2021/05/29 11:38:23;;;;;;;10.10;6.57;;;30.90;46.50;;;;;;5064639;28;20025;-80
2021/05/29 11:40:50;;;;;;;10.02;6.55;;;30.50;47.20;;;;;;5063405;28;20095;-80
2021/05/29 11:43:18;;;;;;;7.78;6.68;;;30.30;47.40;;;;;;5068474;28;20032;-80
2021/05/29 11:45:45;;;;;;;7.80;6.65;;;30.30;47.60;;;;;;5074632;28;20016;-79
2021/05/29 11:48:11;;;;;;;6.97;5.70;;;30.10;47.80;;;;;;5055805;28;20074;-79
2021/05/29 11:50:41;;;;;;;7.30;5.68;;;29.90;48.00;;;;;;5074524;28;20032;-80
2021/05/29 11:53:11;;;;;;;6.05;5.45;;;29.70;48.30;;;;;;5075004;28;20072;-79
2021/05/29 11:55:53;;;;;;;8.57;5.50;;;29.70;48.90;;;;;;5074760;28;20051;-80
2021/05/29 11:58:20;;;;;;;10.20;5.10;;;29.50;48.40;;;;;;5073997;28;20067;-81
2021/05/29 12:01:16;;;;;;;6.03;5.35;;;29.40;48.70;;;;;;5074041;28;20028;-81
2021/05/29 12:03:47;;;;;;;5.50;4.97;;;29.30;49.10;;;;;;5065214;28;20441;-79
2021/05/29 12:06:32;;;;;;;6.20;5.03;;;29.40;49.10;;;;;;5066698;28;20086;-80
2021/05/29 12:08:59;;;;;;;8.50;5.13;;;29.70;48.90;;;;;;5064297;28;20025;-80
2021/05/29 12:11:29;;;;;;;8.75;5.22;;;30.30;48.70;;;;;;5062292;28;20832;-81
2021/05/29 12:14:06;;;;;;;4.88;4.43;;;31.40;48.10;;;;;;5062164;28;20068;-80
2021/05/29 12:16:34;;;;;;;10.18;4.88;;;32.90;46.30;;;;;;5062895;28;20033;-80
2021/05/29 12:19:01;;;;;;;4.82;4.43;;;34.00;45.10;;;;;;5061586;28;20023;-80
2021/05/29 12:21:48;;;;;;;5.88;4.75;;;34.50;43.80;;;;;;5061983;28;20025;-79
2021/05/29 12:24:15;;;;;;;7.93;5.25;;;34.60;43.10;;;;;;5062622;28;20402;-80
2021/05/29 12:26:42;;;;;;;7.45;6.25;;;34.30;42.70;;;;;;5061513;28;20028;-81
2021/05/29 12:29:08;;;;;;;6.82;5.50;;;33.60;43.10;;;;;;5073379;28;20036;-80
2021/05/29 12:31:49;;;;;;;5.88;5.28;;;33.00;43.80;;;;;;5072531;28;20051;-78
2021/05/29 12:34:15;;;;;;;7.72;5.50;;;33.10;44.40;;;;;;5073349;28;20079;-79
2021/05/29 12:37:04;;;;;;;4.80;4.30;;;33.00;44.30;;;;;;5058294;28;20048;-80
2021/05/29 12:39:45;;;;;;;4.20;3.90;;;32.80;44.30;;;;;;5052791;28;20024;-79
2021/05/29 12:42:23;;;;;;;4.05;3.42;;;32.50;44.70;;;;;;5053978;28;20037;-79
2021/05/29 12:44:51;;;;;;;5.28;3.50;;;32.50;44.70;;;;;;5053514;28;20126;-80
2021/05/29 12:47:21;;;;;;;3.92;3.25;;;32.80;44.80;;;;;;5053390;28;20057;-80
2021/05/29 12:49:47;;;;;;;5.03;3.47;;;32.70;44.10;;;;;;5053094;28;20032;-81
2021/05/29 12:52:23;;;;;;;3.20;3.00;;;32.30;44.30;;;;;;5053393;28;20104;-80
2021/05/29 12:54:48;;;;;;;4.22;2.75;;;31.60;44.80;;;;;;5053217;28;20120;-80
2021/05/29 12:57:15;;;;;;;3.97;3.03;;;31.00;45.60;;;;;;5053699;28;20503;-80
2021/05/29 12:59:42;;;;;;;4.53;2.92;;;30.40;46.30;;;;;;5052473;28;20025;-80
2021/05/29 13:07:32;;;;;;;3.67;3.10;;;30.10;47.60;;;;;;5053126;28;20485;-79